Terminal Aerodrome Forecast
Issued by NWS Twin Cities, MN

Home | Current Version | Previous Version | Text Only | Print | Product List | Glossary Off
Versions: 1 2 3 4 5 6 7 8 9 10 11 12 13 14 15

000
FTUS43 KMPX 220520
TAFEAU
TAF
KEAU 220520Z 2206/2306 02004KT P6SM SKC
     FM221400 10007KT P6SM SKC
     FM222000 15010KT P6SM SCT200
     FM230200 15006KT P6SM OVC090=

USA.gov is the U.S. government's official web portal to all federal, state and local government web resources and services.